createdAt,value
2022-10-21T00:01:00.770Z,67.70
2022-10-21T00:03:40.078Z,67.87
2022-10-21T00:06:10.864Z,67.85
2022-10-21T00:08:40.498Z,67.88
2022-10-21T00:11:10.514Z,67.97
2022-10-21T00:13:39.980Z,67.94
2022-10-21T00:16:16.318Z,68.11
2022-10-21T00:18:49.422Z,68.10
2022-10-21T00:21:22.307Z,67.94
2022-10-21T00:23:50.291Z,67.94
2022-10-21T00:26:21.913Z,68.06
2022-10-21T00:28:51.736Z,68.00
2022-10-21T00:31:19.346Z,67.96
2022-10-21T00:33:46.989Z,67.87
2022-10-21T00:36:16.232Z,68.12
2022-10-21T00:38:48.547Z,68.01
2022-10-21T00:41:19.408Z,68.02
2022-10-21T00:43:59.186Z,68.04
2022-10-21T00:46:41.371Z,68.02
2022-10-21T00:49:23.276Z,68.12
2022-10-21T00:51:57.448Z,68.22
2022-10-21T00:54:28.298Z,68.32
2022-10-21T00:56:58.474Z,68.28
2022-10-21T00:59:32.329Z,68.38
2022-10-21T01:02:00.912Z,68.46
2022-10-21T01:04:29.581Z,68.51
2022-10-21T01:07:00.559Z,68.49
2022-10-21T01:09:30.455Z,68.41
2022-10-21T01:12:02.908Z,68.35
2022-10-21T01:14:55.933Z,68.32
2022-10-21T01:17:51.453Z,68.34
2022-10-21T01:20:30.485Z,68.46
2022-10-21T01:23:35.615Z,68.32
2022-10-21T01:26:25.392Z,68.46
2022-10-21T01:29:18.716Z,68.44
2022-10-21T01:32:06.858Z,68.36
2022-10-21T01:35:03.926Z,68.61
2022-10-21T01:37:57.838Z,68.53
2022-10-21T01:40:55.818Z,68.57
2022-10-21T01:43:29.674Z,68.73
2022-10-21T01:46:27.136Z,68.68
2022-10-21T01:49:11.912Z,68.90
2022-10-21T01:51:40.729Z,68.63
2022-10-21T01:54:17.074Z,68.61
2022-10-21T01:56:49.166Z,68.55
2022-10-21T01:59:20.945Z,68.58
2022-10-21T02:01:52.476Z,68.65
2022-10-21T02:04:24.644Z,68.56
2022-10-21T02:06:52.325Z,68.52
2022-10-21T02:09:20.714Z,68.58
2022-10-21T02:11:54.937Z,68.51
2022-10-21T02:14:33.032Z,68.72
2022-10-21T02:17:01.966Z,68.55
2022-10-21T02:22:10.573Z,68.64
2022-10-21T02:24:57.130Z,68.62
2022-10-21T02:27:24.925Z,68.63
2022-10-21T02:29:59.410Z,68.60
2022-10-21T02:32:33.217Z,68.74
2022-10-21T02:35:27.358Z,68.82
2022-10-21T02:38:15.654Z,68.74
2022-10-21T02:41:05.349Z,68.76
2022-10-21T02:43:47.974Z,68.80
2022-10-21T02:46:15.977Z,68.78
2022-10-21T02:48:48.594Z,68.70
2022-10-21T02:51:17.715Z,68.66
2022-10-21T02:53:46.571Z,68.75
2022-10-21T02:56:15.483Z,68.77
2022-10-21T02:58:43.319Z,68.66
2022-10-21T03:01:11.114Z,68.75
2022-10-21T03:03:38.800Z,68.68
2022-10-21T03:06:08.463Z,68.68
2022-10-21T03:08:36.523Z,68.73
2022-10-21T03:11:05.463Z,68.74
2022-10-21T03:13:34.336Z,68.84
2022-10-21T03:16:02.031Z,68.80
2022-10-21T03:18:29.722Z,68.75
2022-10-21T03:20:57.531Z,68.68
2022-10-21T03:23:25.222Z,68.61
2022-10-21T03:25:52.972Z,68.90
2022-10-21T03:28:20.688Z,68.91
2022-10-21T03:30:49.640Z,69.01
2022-10-21T03:33:18.491Z,69.11
2022-10-21T03:35:46.284Z,68.76
2022-10-21T03:38:15.050Z,68.77
2022-10-21T03:40:42.923Z,69.24
2022-10-21T03:43:10.648Z,68.92
2022-10-21T03:45:38.439Z,68.82
2022-10-21T03:48:06.201Z,68.90
2022-10-21T03:50:34.039Z,69.26
2022-10-21T03:53:09.962Z,69.18
2022-10-21T03:55:42.498Z,69.28
2022-10-21T03:58:10.207Z,69.08
2022-10-21T04:00:38.233Z,69.25
2022-10-21T04:03:05.878Z,69.18
2022-10-21T04:05:33.799Z,69.33
2022-10-21T04:08:02.731Z,69.27
2022-10-21T04:10:30.440Z,69.36
2022-10-21T04:12:58.255Z,69.42
2022-10-21T04:15:29.002Z,69.29
2022-10-21T04:17:56.964Z,69.30
2022-10-21T04:20:24.716Z,69.27
2022-10-21T04:22:53.626Z,69.17
2022-10-21T04:25:21.518Z,69.36
2022-10-21T04:27:49.420Z,69.30
2022-10-21T04:30:17.421Z,69.31
2022-10-21T04:32:45.193Z,69.27
2022-10-21T04:35:15.501Z,69.29
2022-10-21T04:37:44.435Z,69.19
2022-10-21T04:40:12.157Z,69.25
2022-10-21T04:42:41.379Z,69.27
2022-10-21T04:45:11.576Z,69.34
2022-10-21T04:47:39.418Z,69.43
2022-10-21T04:50:10.794Z,69.39
2022-10-21T04:52:40.980Z,69.32
2022-10-21T04:55:09.245Z,69.33
2022-10-21T04:57:36.957Z,69.38
2022-10-21T05:00:07.738Z,69.31
2022-10-21T05:02:35.600Z,69.29
2022-10-21T05:05:04.702Z,69.37
2022-10-21T05:07:32.414Z,69.32
2022-10-21T05:10:00.067Z,69.32
2022-10-21T05:12:27.814Z,69.38
2022-10-21T05:14:55.615Z,69.32
2022-10-21T05:17:25.138Z,69.37
2022-10-21T05:19:52.858Z,69.36
2022-10-21T05:22:20.631Z,69.45
2022-10-21T05:24:50.695Z,69.47
2022-10-21T05:27:19.969Z,69.49
2022-10-21T05:29:47.678Z,69.53
2022-10-21T05:32:17.668Z,69.45
2022-10-21T05:34:45.412Z,69.61
2022-10-21T05:37:13.363Z,69.51
2022-10-21T05:39:43.122Z,69.52
2022-10-21T05:42:10.834Z,69.62
2022-10-21T05:44:38.672Z,69.48
2022-10-21T05:47:06.469Z,69.68
2022-10-21T05:49:34.198Z,69.68
2022-10-21T05:52:03.402Z,69.62
2022-10-21T05:54:31.291Z,69.72
2022-10-21T05:56:58.941Z,69.72
2022-10-21T05:59:28.546Z,69.84
2022-10-21T06:01:56.303Z,69.85
2022-10-21T06:04:26.400Z,69.95
2022-10-21T06:06:58.992Z,69.82
2022-10-21T06:09:26.740Z,69.83
2022-10-21T06:11:58.735Z,69.91
2022-10-21T06:14:27.809Z,70.07
2022-10-21T06:16:57.809Z,69.93
2022-10-21T06:19:25.449Z,69.97
2022-10-21T06:21:55.204Z,70.05
2022-10-21T06:24:23.019Z,70.10
2022-10-21T06:26:51.880Z,70.07
2022-10-21T06:29:19.617Z,70.09
2022-10-21T06:31:47.318Z,70.24
2022-10-21T06:36:46.557Z,70.41
2022-10-21T06:39:14.303Z,70.14
2022-10-21T06:41:42.044Z,70.19
2022-10-21T06:44:09.730Z,70.24
2022-10-21T06:46:39.511Z,70.20
2022-10-21T06:49:07.249Z,70.31
2022-10-21T06:51:34.992Z,70.26
2022-10-21T06:54:02.688Z,70.36
2022-10-21T06:56:32.893Z,70.28
2022-10-21T06:59:02.766Z,70.48
2022-10-21T07:01:48.497Z,70.69
2022-10-21T07:04:25.332Z,70.70
2022-10-21T07:06:54.414Z,70.65
2022-10-21T07:09:22.209Z,70.46
2022-10-21T07:11:49.993Z,70.59
2022-10-21T07:14:17.671Z,70.62
2022-10-21T07:16:45.438Z,70.54
2022-10-21T07:19:16.497Z,70.72
2022-10-21T07:21:45.541Z,70.60
2022-10-21T07:24:13.249Z,70.84
2022-10-21T07:26:42.268Z,70.71
2022-10-21T07:29:10.240Z,70.70
2022-10-21T07:31:39.634Z,70.79
2022-10-21T07:34:12.371Z,70.88
2022-10-21T07:36:48.912Z,70.97
2022-10-21T07:39:22.482Z,70.76
2022-10-21T07:41:57.835Z,70.75
2022-10-21T07:44:26.711Z,71.10
2022-10-21T07:46:54.836Z,71.18
2022-10-21T07:49:24.508Z,71.36
2022-10-21T07:51:53.315Z,70.97
2022-10-21T07:54:22.263Z,71.25
2022-10-21T07:56:53.035Z,71.10
2022-10-21T07:59:22.257Z,71.13
2022-10-21T08:01:54.080Z,71.34
2022-10-21T08:04:25.976Z,71.42
2022-10-21T08:06:53.671Z,71.56
2022-10-21T08:09:23.196Z,71.66
2022-10-21T08:11:50.879Z,71.48
2022-10-21T08:14:18.655Z,71.55
2022-10-21T08:16:46.454Z,71.70
2022-10-21T08:19:19.755Z,71.55
2022-10-21T08:21:47.638Z,71.47
2022-10-21T08:24:15.634Z,70.50
2022-10-21T08:26:45.985Z,70.96
2022-10-21T08:29:13.637Z,70.76
2022-10-21T08:31:41.441Z,70.84
2022-10-21T08:34:10.790Z,70.64
2022-10-21T08:36:39.662Z,70.48
2022-10-21T08:39:07.908Z,70.48
2022-10-21T08:42:14.635Z,70.24
2022-10-21T08:44:59.811Z,70.28
2022-10-21T08:47:46.030Z,70.04
2022-10-21T08:50:25.852Z,70.28
2022-10-21T08:53:21.319Z,69.82
2022-10-21T08:55:56.054Z,69.40
2022-10-21T08:58:25.562Z,69.64
2022-10-21T09:01:23.499Z,68.56
2022-10-21T09:04:11.269Z,67.73
2022-10-21T09:07:09.919Z,68.20
2022-10-21T09:09:54.412Z,66.68
2022-10-21T09:12:44.928Z,66.46
2022-10-21T09:15:30.992Z,65.97
2022-10-21T09:18:07.771Z,65.99
2022-10-21T09:20:56.020Z,65.82
2022-10-21T09:23:37.529Z,65.80
2022-10-21T09:26:31.409Z,66.31
2022-10-21T09:29:02.219Z,65.77
2022-10-21T09:31:33.635Z,64.81
2022-10-21T09:34:09.707Z,64.04
2022-10-21T09:36:48.066Z,64.04
2022-10-21T09:39:38.855Z,59.52
2022-10-21T09:42:12.422Z,62.69
2022-10-21T09:44:52.697Z,63.19
2022-10-21T09:47:24.667Z,63.29
2022-10-21T09:50:07.674Z,61.56
2022-10-21T09:52:38.985Z,61.54
2022-10-21T09:55:14.170Z,61.11
2022-10-21T09:57:55.218Z,61.47
2022-10-21T10:00:39.893Z,60.67
2022-10-21T10:03:09.962Z,61.13
2022-10-21T10:05:48.356Z,59.74
2022-10-21T10:08:43.421Z,60.78
2022-10-21T10:11:17.153Z,59.89
2022-10-21T10:13:51.977Z,60.83
2022-10-21T10:16:22.909Z,60.10
2022-10-21T10:18:54.311Z,59.76
2022-10-21T10:21:22.842Z,58.95
2022-10-21T10:23:54.911Z,59.45
2022-10-21T10:26:31.156Z,59.16
2022-10-21T10:29:18.698Z,58.32
2022-10-21T10:31:58.006Z,58.29
2022-10-21T10:34:40.849Z,58.64
2022-10-21T10:37:18.842Z,58.43
2022-10-21T10:39:52.371Z,58.22
2022-10-21T10:42:24.319Z,58.24
2022-10-21T10:44:56.224Z,57.39
2022-10-21T10:47:31.558Z,55.83
2022-10-21T10:49:59.564Z,54.75
2022-10-21T10:52:27.339Z,56.57
2022-10-21T10:55:16.366Z,56.20
2022-10-21T10:57:59.118Z,54.98
2022-10-21T11:00:45.922Z,54.40
2022-10-21T11:03:29.062Z,53.87
2022-10-21T11:06:08.902Z,51.37
2022-10-21T11:08:46.802Z,52.14
2022-10-21T11:11:36.523Z,53.61
2022-10-21T11:14:16.437Z,52.70
2022-10-21T11:17:13.815Z,53.85
2022-10-21T11:19:58.719Z,52.87
2022-10-21T11:22:48.080Z,53.50
2022-10-21T11:25:36.882Z,53.31
2022-10-21T11:28:21.729Z,50.29
2022-10-21T11:31:14.623Z,50.12
2022-10-21T11:34:13.948Z,49.25
2022-10-21T11:37:21.371Z,49.71
2022-10-21T11:40:17.658Z,50.61
2022-10-21T11:42:54.280Z,49.82
2022-10-21T11:45:37.014Z,48.65
2022-10-21T11:48:14.496Z,48.85
2022-10-21T11:51:16.677Z,48.20
2022-10-21T11:54:16.702Z,49.02
2022-10-21T11:57:18.075Z,48.77
2022-10-21T12:00:18.875Z,46.33
2022-10-21T12:03:18.332Z,47.81
2022-10-21T12:06:01.859Z,48.76
2022-10-21T12:08:50.753Z,47.54
2022-10-21T12:11:33.002Z,47.38
2022-10-21T12:14:19.765Z,46.52
2022-10-21T12:16:50.262Z,46.72
2022-10-21T12:19:19.206Z,46.77
2022-10-21T12:21:47.158Z,47.12
2022-10-21T12:24:34.350Z,46.86
2022-10-21T12:27:26.272Z,46.88
2022-10-21T12:30:33.425Z,45.87
2022-10-21T12:33:22.866Z,44.69
2022-10-21T12:35:57.331Z,45.39
2022-10-21T12:38:48.790Z,46.05
2022-10-21T12:41:24.813Z,45.04
2022-10-21T12:44:21.492Z,45.59
2022-10-21T12:46:55.097Z,45.78
2022-10-21T12:49:25.656Z,45.23
2022-10-21T12:52:03.206Z,44.25
2022-10-21T12:54:42.981Z,44.71
2022-10-21T12:57:24.395Z,43.42
2022-10-21T13:00:27.408Z,42.99
2022-10-21T13:03:03.258Z,43.59
2022-10-21T13:05:36.946Z,43.25
2022-10-21T13:08:20.354Z,41.63
2022-10-21T13:11:06.509Z,42.03
2022-10-21T13:13:46.059Z,41.32
2022-10-21T13:16:19.729Z,41.69
2022-10-21T13:18:59.053Z,42.77
2022-10-21T13:21:29.793Z,42.57
2022-10-21T13:24:16.703Z,43.23
2022-10-21T13:27:00.704Z,43.40
2022-10-21T13:29:37.881Z,42.67
2022-10-21T13:32:33.571Z,42.54
2022-10-21T13:35:20.256Z,41.73
2022-10-21T13:38:18.784Z,41.44
2022-10-21T13:40:50.117Z,42.65
2022-10-21T13:43:29.139Z,42.78
2022-10-21T13:46:05.434Z,42.21
2022-10-21T13:48:40.115Z,41.17
2022-10-21T13:51:21.481Z,41.89
2022-10-21T13:53:54.768Z,42.17
2022-10-21T13:56:32.095Z,42.09
2022-10-21T13:59:01.190Z,42.35
2022-10-21T14:01:43.809Z,42.03
2022-10-21T14:04:20.811Z,41.52
2022-10-21T14:06:53.496Z,41.19
2022-10-21T14:09:27.386Z,41.30
2022-10-21T14:12:06.618Z,41.86
2022-10-21T14:14:40.224Z,42.04
2022-10-21T14:17:23.585Z,41.85
2022-10-21T14:19:55.958Z,42.05
2022-10-21T14:22:29.172Z,41.56
2022-10-21T14:25:02.696Z,41.11
2022-10-21T14:27:35.002Z,41.23
2022-10-21T14:30:07.454Z,41.60
2022-10-21T14:32:38.058Z,41.91
2022-10-21T14:35:10.201Z,41.85
2022-10-21T14:37:49.098Z,42.00
2022-10-21T14:40:32.883Z,41.58
2022-10-21T14:43:19.716Z,41.77
2022-10-21T14:45:52.701Z,41.45
2022-10-21T14:48:29.801Z,40.46
2022-10-21T14:51:06.609Z,40.33
2022-10-21T14:53:46.575Z,40.92
2022-10-21T14:56:41.089Z,40.32
2022-10-21T14:59:31.753Z,40.14
2022-10-21T15:02:01.789Z,39.22
2022-10-21T15:04:53.595Z,39.89
2022-10-21T15:07:33.217Z,40.07
2022-10-21T15:10:05.327Z,39.75
2022-10-21T15:12:39.262Z,39.99
2022-10-21T15:15:49.743Z,39.48
2022-10-21T15:18:30.222Z,39.91
2022-10-21T15:21:13.874Z,39.37
2022-10-21T15:24:02.112Z,39.32
2022-10-21T15:26:38.258Z,39.68
2022-10-21T15:29:20.379Z,39.52
2022-10-21T15:31:48.518Z,39.87
2022-10-21T15:34:20.111Z,40.27
2022-10-21T15:36:48.157Z,40.23
2022-10-21T15:39:15.777Z,40.33
2022-10-21T15:41:48.417Z,40.11
2022-10-21T15:44:28.447Z,40.35
2022-10-21T15:47:01.232Z,40.12
2022-10-21T15:49:35.189Z,40.23
2022-10-21T15:52:02.922Z,40.41
2022-10-21T15:54:31.218Z,40.29
2022-10-21T15:57:01.014Z,40.27
2022-10-21T15:59:31.359Z,40.31
2022-10-21T16:02:00.309Z,40.32
2022-10-21T16:04:28.252Z,40.48
2022-10-21T16:06:56.376Z,40.19
2022-10-21T16:09:28.011Z,39.71
2022-10-21T16:12:00.961Z,40.20
2022-10-21T16:14:30.760Z,40.27
2022-10-21T16:16:59.607Z,40.31
2022-10-21T16:19:28.785Z,40.38
2022-10-21T16:21:56.730Z,40.48
2022-10-21T16:24:24.586Z,40.41
2022-10-21T16:26:52.395Z,40.51
2022-10-21T16:29:25.471Z,40.50
2022-10-21T16:31:53.768Z,40.56
2022-10-21T16:34:22.771Z,40.49
2022-10-21T16:36:50.443Z,40.59
2022-10-21T16:39:24.321Z,40.52
2022-10-21T16:41:52.259Z,40.65
2022-10-21T16:44:19.914Z,40.46
2022-10-21T16:46:54.511Z,40.67
2022-10-21T16:49:27.285Z,40.65
2022-10-21T16:51:55.318Z,40.74
2022-10-21T16:54:23.811Z,40.69
2022-10-21T16:56:54.828Z,40.78
2022-10-21T16:59:23.786Z,40.89
2022-10-21T17:01:52.372Z,40.83
2022-10-21T17:04:20.115Z,40.91
2022-10-21T17:06:48.414Z,41.03
2022-10-21T17:09:16.526Z,40.98
2022-10-21T17:11:44.258Z,41.05
2022-10-21T17:14:17.594Z,41.05
2022-10-21T17:16:45.662Z,41.12
2022-10-21T17:19:14.757Z,41.14
2022-10-21T17:21:42.976Z,41.16
2022-10-21T17:24:15.204Z,41.22
2022-10-21T17:26:43.823Z,41.31
2022-10-21T17:29:12.750Z,41.44
2022-10-21T17:31:43.050Z,41.42
2022-10-21T17:34:27.494Z,41.42
2022-10-21T17:36:55.369Z,41.57
2022-10-21T17:39:24.411Z,41.51
2022-10-21T17:41:52.167Z,41.53
2022-10-21T17:44:20.981Z,41.60
2022-10-21T17:46:54.265Z,41.71
2022-10-21T17:49:24.321Z,41.61
2022-10-21T17:51:52.908Z,41.78
2022-10-21T17:54:26.042Z,41.73
2022-10-21T17:56:58.364Z,41.81
2022-10-21T17:59:27.548Z,41.89
2022-10-21T18:01:55.245Z,41.97
2022-10-21T18:04:22.954Z,41.98
2022-10-21T18:06:50.616Z,41.95
2022-10-21T18:09:18.469Z,42.18
2022-10-21T18:11:49.657Z,42.12
2022-10-21T18:14:18.413Z,42.30
2022-10-21T18:16:46.070Z,42.37
2022-10-21T18:19:14.032Z,42.40
2022-10-21T18:21:41.675Z,42.49
2022-10-21T18:24:12.409Z,42.44
2022-10-21T18:26:41.374Z,42.55
2022-10-21T18:29:09.139Z,42.67
2022-10-21T18:31:38.524Z,42.81
2022-10-21T18:34:12.010Z,42.78
2022-10-21T18:36:41.634Z,42.88
2022-10-21T18:39:12.606Z,42.97
2022-10-21T18:41:41.050Z,43.04
2022-10-21T18:44:12.913Z,43.11
2022-10-21T18:46:43.538Z,43.21
2022-10-21T18:49:15.698Z,43.27
2022-10-21T18:51:43.433Z,43.50
2022-10-21T18:54:11.277Z,43.39
2022-10-21T18:56:42.011Z,43.72
2022-10-21T18:59:10.899Z,43.58
2022-10-21T19:01:42.132Z,43.63
2022-10-21T19:04:10.816Z,43.83
2022-10-21T19:06:46.489Z,43.70
2022-10-21T19:09:22.188Z,43.83
2022-10-21T19:11:50.178Z,43.84
2022-10-21T19:14:19.890Z,43.89
2022-10-21T19:16:49.206Z,43.94
2022-10-21T19:19:17.815Z,44.03
2022-10-21T19:21:47.009Z,44.09
2022-10-21T19:24:15.170Z,44.21
2022-10-21T19:26:47.309Z,44.29
2022-10-21T19:29:19.938Z,44.26
2022-10-21T19:31:51.542Z,44.29
2022-10-21T19:34:29.043Z,44.48
2022-10-21T19:36:56.908Z,44.40
2022-10-21T19:39:29.253Z,44.40
2022-10-21T19:42:03.318Z,44.47
2022-10-21T19:44:31.803Z,44.48
2022-10-21T19:47:00.108Z,44.54
2022-10-21T19:49:27.944Z,44.58
2022-10-21T19:51:55.926Z,44.66
2022-10-21T19:54:24.152Z,44.59
2022-10-21T19:56:52.825Z,44.67
2022-10-21T19:59:20.661Z,44.77
2022-10-21T20:01:49.048Z,44.76
2022-10-21T20:04:19.269Z,44.85
2022-10-21T20:06:50.097Z,44.82
2022-10-21T20:09:17.994Z,44.93
2022-10-21T20:11:45.942Z,44.94
2022-10-21T20:14:17.795Z,44.90
2022-10-21T20:16:53.654Z,44.98
2022-10-21T20:19:21.568Z,45.04
2022-10-21T20:21:49.872Z,45.08
2022-10-21T20:24:17.747Z,45.14
2022-10-21T20:26:50.236Z,45.17
2022-10-21T20:29:19.054Z,45.23
2022-10-21T20:31:46.922Z,45.23
2022-10-21T20:34:14.790Z,45.19
2022-10-21T20:36:45.729Z,45.37
2022-10-21T20:39:16.398Z,45.39
2022-10-21T20:41:44.953Z,45.41
2022-10-21T20:44:18.707Z,45.37
2022-10-21T20:46:46.703Z,45.60
2022-10-21T20:49:17.435Z,45.49
2022-10-21T20:51:45.612Z,45.60
2022-10-21T20:54:16.973Z,45.66
2022-10-21T20:56:47.713Z,45.70
2022-10-21T20:59:19.211Z,45.70
2022-10-21T21:01:51.168Z,45.79
2022-10-21T21:04:23.785Z,45.84
2022-10-21T21:06:54.072Z,45.99
2022-10-21T21:12:11.493Z,45.94
2022-10-21T21:14:42.760Z,46.02
2022-10-21T21:17:10.445Z,45.97
2022-10-21T21:19:41.577Z,46.02
2022-10-21T21:22:09.408Z,46.34
2022-10-21T21:24:39.940Z,46.28
2022-10-21T21:27:07.701Z,46.30
2022-10-21T21:29:38.826Z,46.27
2022-10-21T21:32:06.522Z,46.37
2022-10-21T21:34:34.225Z,46.52
2022-10-21T21:37:01.963Z,46.48
2022-10-21T21:39:29.820Z,46.47
2022-10-21T21:41:58.161Z,46.59
2022-10-21T21:44:28.161Z,46.68
2022-10-21T21:46:55.930Z,46.72
2022-10-21T21:49:23.880Z,46.75
2022-10-21T21:51:57.417Z,46.75
2022-10-21T21:54:25.756Z,46.76
2022-10-21T21:57:00.645Z,46.95
2022-10-21T21:59:41.440Z,47.03
2022-10-21T22:02:10.193Z,47.23
2022-10-21T22:04:39.674Z,47.17
2022-10-21T22:07:07.888Z,47.19
2022-10-21T22:09:37.630Z,47.12
2022-10-21T22:12:05.615Z,47.25
2022-10-21T22:14:33.296Z,47.16
2022-10-21T22:17:01.367Z,47.17
2022-10-21T22:19:29.041Z,47.25
2022-10-21T22:21:58.071Z,47.31
2022-10-21T22:24:25.825Z,47.38
2022-10-21T22:26:53.551Z,47.42
2022-10-21T22:29:22.687Z,47.49
2022-10-21T22:31:50.336Z,47.60
2022-10-21T22:34:20.701Z,47.57
2022-10-21T22:36:48.367Z,47.54
2022-10-21T22:39:16.004Z,47.69
2022-10-21T22:41:43.700Z,47.71
2022-10-21T22:44:15.393Z,47.67
2022-10-21T22:46:43.169Z,47.83
2022-10-21T22:49:10.792Z,47.80
2022-10-21T22:51:38.504Z,47.77
2022-10-21T22:54:19.122Z,47.95
2022-10-21T22:56:48.265Z,47.86
2022-10-21T22:59:16.040Z,48.02
2022-10-21T23:01:43.835Z,47.88
2022-10-21T23:04:11.509Z,47.94
2022-10-21T23:06:39.220Z,48.10
2022-10-21T23:09:09.534Z,48.05
2022-10-21T23:11:37.502Z,48.07
2022-10-21T23:14:08.917Z,48.26
2022-10-21T23:16:38.623Z,48.17
2022-10-21T23:19:08.924Z,48.16
2022-10-21T23:21:42.415Z,48.34
2022-10-21T23:24:14.365Z,48.33
2022-10-21T23:26:42.498Z,48.34
2022-10-21T23:29:10.257Z,48.28
2022-10-21T23:31:37.997Z,48.45
2022-10-21T23:34:06.130Z,48.31
2022-10-21T23:36:36.787Z,48.50
2022-10-21T23:39:05.350Z,48.54
2022-10-21T23:41:33.065Z,48.67
2022-10-21T23:44:00.823Z,48.59
2022-10-21T23:46:32.262Z,48.68
2022-10-21T23:48:59.942Z,48.66
2022-10-21T23:51:30.365Z,48.71
2022-10-21T23:53:57.996Z,48.78
2022-10-21T23:56:25.736Z,48.72
2022-10-21T23:59:01.227Z,48.78
